createdAt,value
2018-07-12T00:00:55.213Z,19.83
2018-07-12T00:01:55.233Z,19.90
2018-07-12T00:02:55.258Z,19.86
2018-07-12T00:03:55.281Z,19.87
2018-07-12T00:04:55.308Z,19.91
2018-07-12T00:05:55.336Z,19.78
2018-07-12T00:06:55.359Z,19.70
2018-07-12T00:07:55.388Z,19.75
2018-07-12T00:08:55.415Z,19.83
2018-07-12T00:09:55.446Z,19.84
2018-07-12T00:10:55.469Z,19.84
2018-07-12T00:11:55.484Z,19.90
2018-07-12T00:12:55.531Z,19.87
2018-07-12T00:13:55.536Z,19.87
2018-07-12T00:14:55.562Z,19.88
2018-07-12T00:15:55.586Z,19.93
2018-07-12T00:16:55.614Z,19.93
2018-07-12T00:17:55.649Z,19.95
2018-07-12T00:18:55.667Z,19.86
2018-07-12T00:19:55.697Z,19.88
2018-07-12T00:20:55.717Z,19.76
2018-07-12T00:21:55.741Z,19.84
2018-07-12T00:22:55.772Z,19.80
2018-07-12T00:23:55.794Z,19.70
2018-07-12T00:24:55.825Z,19.72
2018-07-12T00:25:55.838Z,19.51
2018-07-12T00:26:55.888Z,19.54
2018-07-12T00:27:55.893Z,19.60
2018-07-12T00:28:55.930Z,19.80
2018-07-12T00:29:55.949Z,19.70
2018-07-12T00:30:55.971Z,19.51
2018-07-12T00:31:55.996Z,19.42
2018-07-12T00:32:56.017Z,19.55
2018-07-12T00:33:56.046Z,19.65
2018-07-12T00:34:56.076Z,19.78
2018-07-12T00:35:56.107Z,19.79
2018-07-12T00:36:56.128Z,19.83
2018-07-12T00:37:56.148Z,19.72
2018-07-12T00:38:56.177Z,19.72
2018-07-12T00:39:56.191Z,19.72
2018-07-12T00:40:56.232Z,19.90
2018-07-12T00:41:56.251Z,19.76
2018-07-12T00:42:56.274Z,19.63
2018-07-12T00:43:56.309Z,19.68
2018-07-12T00:44:56.329Z,19.46
2018-07-12T00:45:56.352Z,19.43
2018-07-12T00:46:56.371Z,19.46
2018-07-12T00:47:56.400Z,19.46
2018-07-12T00:48:56.431Z,19.60
2018-07-12T00:49:56.458Z,19.68
2018-07-12T00:50:56.479Z,19.42
2018-07-12T00:51:56.511Z,19.47
2018-07-12T00:52:56.555Z,19.61
2018-07-12T00:53:56.557Z,19.65
2018-07-12T00:55:56.609Z,19.63
2018-07-12T00:56:56.636Z,19.66
2018-07-12T00:57:56.652Z,19.65
2018-07-12T00:58:56.688Z,19.70
2018-07-12T00:59:56.712Z,19.53
2018-07-12T01:00:56.738Z,19.43
2018-07-12T01:01:56.756Z,19.46
2018-07-12T01:02:56.784Z,19.60
2018-07-12T01:03:56.814Z,19.53
2018-07-12T01:04:56.837Z,19.51
2018-07-12T01:05:56.856Z,19.54
2018-07-12T01:06:56.886Z,19.60
2018-07-12T01:07:56.909Z,19.69
2018-07-12T01:08:56.936Z,19.68
2018-07-12T01:09:56.963Z,19.60
2018-07-12T01:10:56.986Z,19.51
2018-07-12T01:11:57.014Z,19.50
2018-07-12T01:12:57.036Z,19.53
2018-07-12T01:13:57.064Z,19.42
2018-07-12T01:15:57.116Z,19.42
2018-07-12T01:16:57.143Z,19.42
2018-07-12T01:17:57.157Z,19.65
2018-07-12T01:18:57.189Z,19.46
2018-07-12T01:19:57.223Z,19.46
2018-07-12T01:20:57.243Z,19.53
2018-07-12T01:21:57.268Z,19.46
2018-07-12T01:22:57.289Z,19.28
2018-07-12T01:23:57.320Z,19.38
2018-07-12T01:24:57.342Z,19.39
2018-07-12T01:25:57.375Z,19.42
2018-07-12T01:26:57.393Z,19.50
2018-07-12T01:27:57.417Z,19.61
2018-07-12T01:28:57.446Z,19.63
2018-07-12T01:29:57.468Z,19.61
2018-07-12T01:30:57.503Z,19.65
2018-07-12T01:31:57.520Z,19.57
2018-07-12T01:32:57.547Z,19.60
2018-07-12T01:33:57.569Z,19.61
2018-07-12T01:34:57.596Z,19.61
2018-07-12T01:35:57.622Z,19.51
2018-07-12T01:36:57.646Z,19.61
2018-07-12T01:37:57.665Z,19.63
2018-07-12T01:38:57.696Z,19.65
2018-07-12T01:39:57.723Z,19.65
2018-07-12T01:40:57.756Z,19.42
2018-07-12T01:41:57.773Z,19.57
2018-07-12T01:42:57.804Z,19.53
2018-07-12T01:43:57.826Z,19.46
2018-07-12T01:44:57.847Z,19.47
2018-07-12T01:45:57.885Z,19.50
2018-07-12T01:46:57.897Z,19.48
2018-07-12T01:47:57.921Z,19.55
2018-07-12T01:48:57.948Z,19.54
2018-07-12T01:49:57.981Z,19.51
2018-07-12T01:50:58.003Z,19.48
2018-07-12T01:51:58.029Z,19.48
2018-07-12T01:52:58.060Z,19.55
2018-07-12T01:53:58.073Z,19.53
2018-07-12T01:54:58.094Z,19.55
2018-07-12T01:55:58.120Z,19.55
2018-07-12T01:56:58.756Z,19.35
2018-07-12T01:57:58.188Z,19.24
2018-07-12T01:58:58.200Z,19.21
2018-07-12T01:59:58.239Z,19.21
2018-07-12T02:00:58.249Z,19.20
2018-07-12T02:01:58.275Z,19.32
2018-07-12T02:02:58.303Z,19.36
2018-07-12T02:03:58.326Z,19.36
2018-07-12T02:04:58.355Z,19.29
2018-07-12T02:05:58.378Z,19.25
2018-07-12T02:06:58.405Z,19.31
2018-07-12T02:07:58.432Z,19.17
2018-07-12T02:08:58.514Z,18.99
2018-07-12T02:09:58.479Z,18.86
2018-07-12T02:10:58.515Z,18.99
2018-07-12T02:11:58.530Z,19.13
2018-07-12T02:12:58.558Z,19.23
2018-07-12T02:13:58.579Z,19.20
2018-07-12T02:14:58.602Z,19.17
2018-07-12T02:15:58.639Z,19.15
2018-07-12T02:16:58.698Z,19.21
2018-07-12T02:17:58.722Z,19.25
2018-07-12T02:18:58.706Z,19.28
2018-07-12T02:19:58.734Z,19.21
2018-07-12T02:20:58.748Z,19.25
2018-07-12T02:22:58.815Z,18.98
2018-07-12T02:23:58.831Z,18.82
2018-07-12T02:24:58.856Z,19.05
2018-07-12T02:25:58.879Z,19.10
2018-07-12T02:26:58.908Z,18.94
2018-07-12T02:27:58.928Z,18.95
2018-07-12T02:28:58.950Z,18.70
2018-07-12T02:29:58.983Z,18.86
2018-07-12T02:30:59.011Z,19.05
2018-07-12T02:32:59.059Z,19.18
2018-07-12T02:33:59.087Z,19.14
2018-07-12T02:34:59.150Z,19.20
2018-07-12T02:35:59.130Z,19.15
2018-07-12T02:36:59.175Z,19.01
2018-07-12T02:37:59.184Z,19.11
2018-07-12T02:38:59.205Z,19.08
2018-07-12T02:39:59.234Z,19.20
2018-07-12T02:40:59.260Z,19.06
2018-07-12T02:41:59.279Z,19.11
2018-07-12T02:42:59.305Z,19.21
2018-07-12T02:43:59.334Z,19.11
2018-07-12T02:44:59.356Z,19.11
2018-07-12T02:45:59.383Z,19.11
2018-07-12T02:46:59.408Z,19.05
2018-07-12T02:47:59.434Z,18.94
2018-07-12T02:48:59.459Z,18.82
2018-07-12T02:49:59.485Z,18.91
2018-07-12T02:50:59.507Z,18.87
2018-07-12T02:51:59.533Z,19.01
2018-07-12T02:52:59.559Z,19.10
2018-07-12T02:53:59.585Z,19.11
2018-07-12T02:54:59.609Z,19.06
2018-07-12T02:55:59.645Z,19.13
2018-07-12T02:56:59.661Z,18.83
2018-07-12T02:57:59.695Z,18.92
2018-07-12T02:58:59.715Z,18.99
2018-07-12T02:59:59.734Z,18.98
2018-07-12T03:00:59.755Z,18.94
2018-07-12T03:01:59.781Z,18.62
2018-07-12T03:02:59.811Z,18.74
2018-07-12T03:03:59.831Z,18.83
2018-07-12T03:04:59.855Z,18.77
2018-07-12T03:05:59.881Z,18.82
2018-07-12T03:06:59.900Z,18.94
2018-07-12T03:07:59.929Z,18.83
2018-07-12T03:08:59.967Z,18.73
2018-07-12T03:09:59.982Z,18.65
2018-07-12T03:11:00.019Z,18.70
2018-07-12T03:12:00.032Z,18.83
2018-07-12T03:13:00.060Z,18.87
2018-07-12T03:14:00.080Z,18.94
2018-07-12T03:15:00.127Z,18.99
2018-07-12T03:16:00.131Z,18.99
2018-07-12T03:17:00.166Z,18.79
2018-07-12T03:18:00.177Z,18.82
2018-07-12T03:19:00.214Z,18.91
2018-07-12T03:20:00.221Z,18.86
2018-07-12T03:21:00.264Z,18.86
2018-07-12T03:22:00.288Z,18.91
2018-07-12T03:23:00.304Z,18.87
2018-07-12T03:24:00.332Z,18.87
2018-07-12T03:25:00.352Z,18.79
2018-07-12T03:26:00.395Z,18.80
2018-07-12T03:27:00.404Z,18.86
2018-07-12T03:28:00.432Z,18.87
2018-07-12T03:29:00.453Z,18.72
2018-07-12T03:30:00.482Z,18.57
2018-07-12T03:31:00.501Z,18.65
2018-07-12T03:32:00.522Z,18.68
2018-07-12T03:33:00.565Z,18.82
2018-07-12T03:34:00.577Z,18.74
2018-07-12T03:35:00.608Z,18.64
2018-07-12T03:36:00.625Z,18.52
2018-07-12T03:37:00.648Z,18.54
2018-07-12T03:38:00.681Z,18.67
2018-07-12T03:39:00.704Z,18.87
2018-07-12T03:40:00.729Z,18.70
2018-07-12T03:41:00.753Z,18.76
2018-07-12T03:42:00.768Z,18.74
2018-07-12T03:43:00.796Z,18.79
2018-07-12T03:44:00.832Z,18.72
2018-07-12T03:45:00.850Z,18.74
2018-07-12T03:46:00.871Z,18.67
2018-07-12T03:47:00.904Z,18.52
2018-07-12T03:48:00.930Z,18.49
2018-07-12T03:49:00.948Z,18.58
2018-07-12T03:50:00.974Z,18.68
2018-07-12T03:51:00.998Z,18.70
2018-07-12T03:52:01.022Z,18.83
2018-07-12T03:53:01.050Z,18.87
2018-07-12T03:54:01.068Z,18.83
2018-07-12T03:55:01.110Z,18.83
2018-07-12T03:56:01.124Z,18.83
2018-07-12T03:57:01.152Z,18.84
2018-07-12T03:58:01.209Z,18.77
2018-07-12T03:59:01.195Z,18.86
2018-07-12T04:00:01.221Z,18.73
2018-07-12T04:01:01.248Z,18.87
2018-07-12T04:02:01.272Z,18.80
2018-07-12T04:03:01.310Z,18.64
2018-07-12T04:04:01.324Z,18.54
2018-07-12T04:05:01.350Z,18.44
2018-07-12T04:06:01.368Z,18.65
2018-07-12T04:07:01.399Z,18.73
2018-07-12T04:08:01.421Z,18.74
2018-07-12T04:09:01.444Z,18.65
2018-07-12T04:10:01.464Z,18.70
2018-07-12T04:11:01.562Z,18.70
2018-07-12T04:12:01.519Z,18.59
2018-07-12T04:13:01.535Z,18.72
2018-07-12T04:14:01.582Z,18.72
2018-07-12T04:15:01.590Z,18.83
2018-07-12T04:16:01.623Z,18.67
2018-07-12T04:17:01.643Z,18.54
2018-07-12T04:18:01.668Z,18.76
2018-07-12T04:19:01.686Z,18.70
2018-07-12T04:20:01.716Z,18.70
2018-07-12T04:21:01.742Z,18.62
2018-07-12T04:22:01.767Z,18.67
2018-07-12T04:23:02.335Z,18.83
2018-07-12T04:24:01.811Z,18.76
2018-07-12T04:25:01.839Z,18.82
2018-07-12T04:26:01.859Z,18.79
2018-07-12T04:27:01.892Z,18.72
2018-07-12T04:28:01.916Z,18.73
2018-07-12T04:29:01.932Z,18.72
2018-07-12T04:30:01.969Z,18.82
2018-07-12T04:31:01.988Z,18.67
2018-07-12T04:32:02.009Z,18.65
2018-07-12T04:33:02.035Z,18.50
2018-07-12T04:34:02.054Z,18.54
2018-07-12T04:35:02.088Z,18.55
2018-07-12T04:36:02.112Z,18.67
2018-07-12T04:37:02.135Z,18.54
2018-07-12T04:38:02.154Z,18.68
2018-07-12T04:39:02.180Z,18.67
2018-07-12T04:40:02.208Z,18.72
2018-07-12T04:41:02.226Z,18.57
2018-07-12T04:42:02.254Z,18.68
2018-07-12T04:43:02.285Z,18.59
2018-07-12T04:44:02.304Z,18.64
2018-07-12T04:45:02.330Z,18.74
2018-07-12T04:46:02.357Z,18.65
2018-07-12T04:47:02.386Z,18.72
2018-07-12T04:48:02.408Z,18.64
2018-07-12T04:49:02.436Z,18.72
2018-07-12T04:50:02.483Z,18.54
2018-07-12T04:51:02.488Z,18.57
2018-07-12T04:52:02.500Z,18.73
2018-07-12T04:53:02.532Z,18.70
2018-07-12T04:54:02.555Z,18.65
2018-07-12T04:55:02.576Z,18.84
2018-07-12T04:56:02.600Z,18.76
2018-07-12T04:57:02.621Z,18.72
2018-07-12T04:58:02.682Z,18.74
2018-07-12T04:59:02.677Z,18.70
2018-07-12T05:00:02.752Z,18.70
2018-07-12T05:01:02.725Z,18.73
2018-07-12T05:02:02.749Z,18.79
2018-07-12T05:03:02.769Z,18.61
2018-07-12T05:04:02.799Z,18.79
2018-07-12T05:05:02.820Z,18.68
2018-07-12T05:06:02.851Z,18.52
2018-07-12T05:07:02.868Z,18.52
2018-07-12T05:08:02.930Z,18.67
2018-07-12T05:09:02.924Z,18.59
2018-07-12T05:10:02.943Z,18.65
2018-07-12T05:11:02.976Z,18.55
2018-07-12T05:12:02.994Z,18.62
2018-07-12T05:13:03.017Z,18.65
2018-07-12T05:14:03.041Z,18.70
2018-07-12T05:15:03.069Z,18.61
2018-07-12T05:16:03.092Z,18.67
2018-07-12T05:17:03.118Z,18.64
2018-07-12T05:18:03.144Z,18.64
2018-07-12T05:19:03.201Z,18.64
2018-07-12T05:20:03.194Z,18.62
2018-07-12T05:21:03.215Z,18.55
2018-07-12T05:22:03.369Z,18.55
2018-07-12T05:23:03.263Z,18.67
2018-07-12T05:24:03.288Z,18.73
2018-07-12T05:25:03.312Z,18.68
2018-07-12T05:26:03.337Z,18.54
2018-07-12T05:27:03.366Z,18.39
2018-07-12T05:28:03.394Z,18.46
2018-07-12T05:29:03.412Z,18.39
2018-07-12T05:30:03.439Z,18.34
2018-07-12T05:31:03.459Z,18.39
2018-07-12T05:32:03.479Z,18.49
2018-07-12T05:33:03.501Z,18.65
2018-07-12T05:34:03.534Z,18.67
2018-07-12T05:35:03.558Z,18.65
2018-07-12T05:36:03.595Z,18.62
2018-07-12T05:37:03.608Z,18.68
2018-07-12T05:38:03.622Z,18.79
2018-07-12T05:39:03.704Z,18.72
2018-07-12T05:40:03.673Z,18.70
2018-07-12T05:41:03.710Z,18.68
2018-07-12T05:42:03.723Z,18.80
2018-07-12T05:43:03.756Z,18.76
2018-07-12T05:44:03.792Z,18.76
2018-07-12T05:45:03.799Z,18.82
2018-07-12T05:46:03.841Z,18.64
2018-07-12T05:47:03.851Z,18.55
2018-07-12T05:48:03.879Z,18.64
2018-07-12T05:49:03.901Z,18.74
2018-07-12T05:50:03.927Z,18.77
2018-07-12T05:51:03.954Z,18.76
2018-07-12T05:52:03.979Z,18.68
2018-07-12T05:53:04.008Z,18.76
2018-07-12T05:54:04.026Z,18.83
2018-07-12T05:55:04.052Z,18.74
2018-07-12T05:56:04.075Z,18.82
2018-07-12T05:57:04.097Z,18.87
2018-07-12T05:58:04.123Z,18.87
2018-07-12T05:59:04.151Z,18.79
2018-07-12T06:00:04.180Z,18.79
2018-07-12T06:01:04.197Z,18.79
2018-07-12T06:02:04.283Z,18.77
2018-07-12T06:03:04.256Z,18.68
2018-07-12T06:04:04.282Z,18.84
2018-07-12T06:05:04.299Z,18.72
2018-07-12T06:06:04.317Z,18.84
2018-07-12T06:07:04.346Z,18.86
2018-07-12T06:08:04.383Z,18.87
2018-07-12T06:09:04.388Z,18.87
2018-07-12T06:10:04.420Z,18.83
2018-07-12T06:11:04.447Z,18.67
2018-07-12T06:12:04.481Z,18.76
2018-07-12T06:13:04.522Z,18.64
2018-07-12T06:14:04.518Z,18.74
2018-07-12T06:15:04.581Z,18.70
2018-07-12T06:16:04.578Z,18.59
2018-07-12T06:17:04.593Z,18.62
2018-07-12T06:18:04.615Z,18.64
2018-07-12T06:19:04.639Z,18.65
2018-07-12T06:20:04.672Z,18.58
2018-07-12T06:21:04.691Z,18.72
2018-07-12T06:22:04.715Z,18.68
2018-07-12T06:23:04.781Z,18.84
2018-07-12T06:24:04.761Z,18.82
2018-07-12T06:25:04.780Z,18.77
2018-07-12T06:26:04.816Z,18.65
2018-07-12T06:27:04.843Z,18.64
2018-07-12T06:28:04.867Z,18.74
2018-07-12T06:29:04.882Z,18.76
2018-07-12T06:30:04.934Z,18.73
2018-07-12T06:31:04.929Z,18.74
2018-07-12T06:32:04.962Z,18.62
2018-07-12T06:33:04.986Z,18.77
2018-07-12T06:34:05.009Z,18.82
2018-07-12T06:35:05.035Z,18.82
2018-07-12T06:36:05.052Z,18.76
2018-07-12T06:37:05.095Z,18.87
2018-07-12T06:38:05.109Z,18.91
2018-07-12T06:39:05.132Z,18.73
2018-07-12T06:40:05.170Z,18.73
2018-07-12T06:41:05.176Z,18.64
2018-07-12T06:42:05.209Z,18.79
2018-07-12T06:43:05.245Z,18.74
2018-07-12T06:44:05.263Z,18.83
2018-07-12T06:45:05.276Z,18.84
2018-07-12T06:46:05.299Z,18.79
2018-07-12T06:47:05.332Z,18.79
2018-07-12T06:48:05.355Z,18.68
2018-07-12T06:49:05.377Z,18.64
2018-07-12T06:50:05.400Z,18.80
2018-07-12T06:51:05.437Z,18.70
2018-07-12T06:52:05.474Z,18.65
2018-07-12T06:53:05.478Z,18.70
2018-07-12T06:54:05.506Z,18.65
2018-07-12T06:55:05.532Z,18.79
2018-07-12T06:56:05.554Z,18.79
2018-07-12T06:57:05.580Z,18.84
2018-07-12T06:58:05.602Z,18.90
2018-07-12T06:59:06.390Z,18.97
2018-07-12T07:00:05.653Z,18.94
2018-07-12T07:01:05.686Z,18.94
2018-07-12T07:02:05.693Z,18.86
2018-07-12T07:03:05.732Z,18.90
2018-07-12T07:04:05.752Z,18.80
2018-07-12T07:05:05.801Z,18.84
2018-07-12T07:06:05.797Z,18.98
2018-07-12T07:07:05.822Z,18.99
2018-07-12T07:08:05.850Z,18.99
2018-07-12T07:09:05.877Z,18.92
2018-07-12T07:10:05.896Z,19.01
2018-07-12T07:11:05.924Z,18.98
2018-07-12T07:12:05.966Z,18.92
2018-07-12T07:13:05.976Z,18.86
2018-07-12T07:14:05.997Z,18.91
2018-07-12T07:15:06.023Z,18.72
2018-07-12T07:16:06.049Z,18.83
2018-07-12T07:17:06.072Z,18.98
2018-07-12T07:18:06.098Z,18.92
2018-07-12T07:19:06.125Z,18.72
2018-07-12T07:20:06.183Z,18.80
2018-07-12T07:21:06.174Z,18.70
2018-07-12T07:22:06.196Z,18.70
2018-07-12T07:23:06.217Z,18.94
2018-07-12T07:24:06.245Z,18.95
2018-07-12T07:25:06.902Z,18.94
2018-07-12T07:26:06.296Z,19.06
2018-07-12T07:27:06.330Z,18.99
2018-07-12T07:28:06.344Z,19.08
2018-07-12T07:29:06.372Z,18.95
2018-07-12T07:30:06.408Z,18.84
2018-07-12T07:31:06.423Z,18.83
2018-07-12T07:32:06.445Z,18.79
2018-07-12T07:33:06.472Z,18.99
2018-07-12T07:34:06.505Z,19.13
2018-07-12T07:35:06.531Z,19.10
2018-07-12T07:36:06.546Z,18.91
2018-07-12T07:37:06.568Z,18.80
2018-07-12T07:38:06.599Z,18.90
2018-07-12T07:39:06.626Z,19.02
2018-07-12T07:40:06.644Z,19.11
2018-07-12T07:41:06.674Z,19.20
2018-07-12T07:42:06.699Z,19.18
2018-07-12T07:43:06.785Z,19.17
2018-07-12T07:44:06.746Z,19.21
2018-07-12T07:45:06.774Z,19.17
2018-07-12T07:46:06.795Z,19.28
2018-07-12T07:47:06.820Z,19.29
2018-07-12T07:48:06.850Z,19.36
2018-07-12T07:49:06.887Z,19.33
2018-07-12T07:50:06.895Z,19.24
2018-07-12T07:51:06.923Z,19.24
2018-07-12T07:52:06.950Z,19.25
2018-07-12T07:53:06.977Z,19.32
2018-07-12T07:54:06.992Z,19.48
2018-07-12T07:55:07.021Z,19.54
2018-07-12T07:56:07.049Z,19.46
2018-07-12T07:57:07.149Z,19.48
2018-07-12T07:58:07.090Z,19.53
2018-07-12T07:59:07.121Z,19.63
2018-07-12T08:00:07.149Z,19.61
2018-07-12T08:01:07.173Z,19.54
2018-07-12T08:02:07.198Z,19.63
2018-07-12T08:03:07.919Z,19.72
2018-07-12T08:04:07.251Z,19.66
2018-07-12T08:05:07.272Z,19.68
2018-07-12T08:06:07.300Z,19.70
2018-07-12T08:07:07.328Z,19.84
2018-07-12T08:08:07.352Z,19.76
2018-07-12T08:09:07.366Z,19.75
2018-07-12T08:10:07.401Z,19.87
2018-07-12T08:11:07.425Z,19.88
2018-07-12T08:12:07.442Z,19.98
2018-07-12T08:13:07.477Z,19.91
2018-07-12T08:14:07.506Z,19.93
2018-07-12T08:15:07.526Z,19.86
2018-07-12T08:16:07.576Z,19.73
2018-07-12T08:17:07.580Z,19.78
2018-07-12T08:18:07.600Z,19.93
2018-07-12T08:19:07.634Z,19.79
2018-07-12T08:20:07.655Z,19.73
2018-07-12T08:21:07.697Z,19.78
2018-07-12T08:22:07.720Z,19.76
2018-07-12T08:23:07.737Z,19.79
2018-07-12T08:24:07.765Z,19.87
2018-07-12T08:25:07.782Z,19.91
2018-07-12T08:26:07.807Z,19.95
2018-07-12T08:27:07.830Z,19.86
2018-07-12T08:28:07.857Z,19.88
2018-07-12T08:29:07.887Z,19.75
2018-07-12T08:30:07.907Z,19.84
2018-07-12T08:31:07.971Z,19.86
2018-07-12T08:32:07.957Z,19.83
2018-07-12T08:33:07.997Z,19.95
2018-07-12T08:34:08.010Z,20.03
2018-07-12T08:35:08.033Z,19.98
2018-07-12T08:36:08.070Z,20.08
2018-07-12T08:37:08.088Z,20.09
2018-07-12T08:38:08.116Z,19.98
2018-07-12T08:39:08.137Z,20.05
2018-07-12T08:40:08.159Z,20.06
2018-07-12T08:41:08.191Z,20.12
2018-07-12T08:42:08.213Z,19.95
2018-07-12T08:43:08.243Z,19.97
2018-07-12T08:44:08.262Z,19.79
2018-07-12T08:45:08.296Z,19.87
2018-07-12T08:46:08.370Z,19.98
2018-07-12T08:47:08.345Z,20.02
2018-07-12T08:48:08.364Z,20.08
2018-07-12T08:49:08.395Z,20.13
2018-07-12T08:50:08.423Z,20.23
2018-07-12T08:51:08.449Z,20.21
2018-07-12T08:52:08.474Z,20.28
2018-07-12T08:53:08.502Z,20.38
2018-07-12T08:54:08.522Z,20.38
2018-07-12T08:55:08.545Z,20.41
2018-07-12T08:56:08.578Z,20.47
2018-07-12T08:57:08.606Z,20.58
2018-07-12T08:58:08.632Z,20.54
2018-07-12T08:59:08.654Z,20.53
2018-07-12T09:00:08.683Z,20.59
2018-07-12T09:01:08.713Z,20.62
2018-07-12T09:02:08.730Z,20.76
2018-07-12T09:03:08.756Z,20.58
2018-07-12T09:04:08.778Z,20.65
2018-07-12T09:05:08.808Z,20.61
2018-07-12T09:06:08.842Z,20.49
2018-07-12T09:07:08.872Z,20.59
2018-07-12T09:08:08.884Z,20.74
2018-07-12T09:09:08.916Z,20.68
2018-07-12T09:10:08.945Z,20.72
2018-07-12T09:11:08.967Z,20.81
2018-07-12T09:12:08.999Z,20.89
2018-07-12T09:13:09.017Z,20.87
2018-07-12T09:14:09.041Z,20.93
2018-07-12T09:15:09.069Z,21.04
2018-07-12T09:16:09.102Z,20.91
2018-07-12T09:17:09.123Z,20.93
2018-07-12T09:18:09.147Z,20.99
2018-07-12T09:19:09.175Z,21.08
2018-07-12T09:20:09.199Z,20.93
2018-07-12T09:21:09.227Z,20.80
2018-07-12T09:22:09.249Z,20.95
2018-07-12T09:23:09.280Z,21.01
2018-07-12T09:24:09.303Z,21.04
2018-07-12T09:25:09.340Z,21.01
2018-07-12T09:26:09.365Z,21.04
2018-07-12T09:27:09.388Z,21.08
2018-07-12T09:28:09.419Z,20.96
2018-07-12T09:29:09.446Z,20.99
2018-07-12T09:30:09.461Z,20.93
2018-07-12T09:31:09.485Z,20.93
2018-07-12T09:32:09.520Z,21.01
2018-07-12T09:33:09.536Z,20.96
2018-07-12T09:34:09.566Z,21.13
2018-07-12T09:35:09.605Z,21.19
2018-07-12T09:36:09.688Z,21.19
2018-07-12T09:37:09.745Z,21.11
2018-07-12T09:38:09.670Z,21.13
2018-07-12T09:39:09.700Z,21.32
2018-07-12T09:40:09.731Z,21.42
2018-07-12T09:41:09.758Z,21.36
2018-07-12T09:42:09.782Z,21.50
2018-07-12T09:43:09.807Z,21.51
2018-07-12T09:44:09.855Z,21.42
2018-07-12T09:45:09.862Z,21.53
2018-07-12T09:46:09.886Z,21.60
2018-07-12T09:47:10.493Z,21.75
2018-07-12T09:48:09.937Z,21.76
2018-07-12T09:49:10.046Z,21.79
2018-07-12T09:50:09.990Z,21.78
2018-07-12T09:51:10.036Z,21.88
2018-07-12T09:52:10.056Z,22.01
2018-07-12T09:53:10.085Z,22.14
2018-07-12T09:54:10.108Z,22.22
2018-07-12T09:55:10.132Z,22.23
2018-07-12T09:56:10.290Z,22.07
2018-07-12T09:57:10.187Z,22.02
2018-07-12T09:58:10.209Z,22.01
2018-07-12T09:59:10.246Z,21.98
2018-07-12T10:00:10.268Z,21.85
2018-07-12T10:01:10.301Z,21.81
2018-07-12T10:02:10.323Z,21.72
2018-07-12T10:03:10.345Z,21.64
2018-07-12T10:04:10.373Z,21.76
2018-07-12T10:05:10.395Z,21.81
2018-07-12T10:06:10.421Z,21.76
2018-07-12T10:07:10.459Z,21.69
2018-07-12T10:08:10.983Z,21.67
2018-07-12T10:09:10.500Z,21.63
2018-07-12T10:10:10.533Z,21.63
2018-07-12T10:11:10.574Z,21.53
2018-07-12T10:12:10.593Z,21.60
2018-07-12T10:13:10.615Z,21.59
2018-07-12T10:14:10.639Z,21.45
2018-07-12T10:15:10.671Z,21.53
2018-07-12T10:16:10.700Z,21.57
2018-07-12T10:17:10.731Z,21.56
2018-07-12T10:18:10.756Z,21.71
2018-07-12T10:19:10.840Z,21.76
2018-07-12T10:20:10.801Z,21.78
2018-07-12T10:21:10.841Z,21.76
2018-07-12T10:22:10.854Z,21.60
2018-07-12T10:23:10.890Z,21.71
2018-07-12T10:24:10.913Z,21.71
2018-07-12T10:25:10.951Z,21.64
2018-07-12T10:26:10.992Z,21.61
2018-07-12T10:27:10.996Z,21.63
2018-07-12T10:28:11.022Z,21.61
2018-07-12T10:29:11.042Z,21.74
2018-07-12T10:30:11.076Z,21.78
2018-07-12T10:31:11.101Z,21.76
2018-07-12T10:32:11.125Z,21.78
2018-07-12T10:33:11.169Z,21.88
2018-07-12T10:34:11.191Z,21.82
2018-07-12T10:35:11.207Z,21.88
2018-07-12T10:36:11.242Z,22.02
2018-07-12T10:37:11.272Z,22.01
2018-07-12T10:38:11.294Z,22.16
2018-07-12T10:39:11.321Z,22.14
2018-07-12T10:40:11.352Z,22.17
2018-07-12T10:41:11.371Z,22.16
2018-07-12T10:42:11.397Z,22.34
2018-07-12T10:43:11.432Z,22.44
2018-07-12T10:44:11.457Z,22.44
2018-07-12T10:45:11.490Z,22.43
2018-07-12T10:46:11.512Z,22.46
2018-07-12T10:47:11.538Z,22.54
2018-07-12T10:49:11.592Z,22.78
2018-07-12T10:50:11.618Z,22.86
2018-07-12T10:51:11.652Z,22.90
2018-07-12T10:52:11.673Z,22.87
2018-07-12T10:53:11.704Z,22.86
2018-07-12T10:54:11.729Z,22.86
2018-07-12T10:55:11.757Z,22.90
2018-07-12T10:56:11.784Z,22.80
2018-07-12T10:57:11.824Z,22.87
2018-07-12T10:58:11.845Z,22.75
2018-07-12T10:59:11.881Z,22.62
2018-07-12T11:00:11.909Z,22.59
2018-07-12T11:01:11.928Z,22.53
2018-07-12T11:02:11.953Z,22.57
2018-07-12T11:03:11.975Z,22.60
2018-07-12T11:04:12.008Z,22.60
2018-07-12T11:05:12.028Z,22.56
2018-07-12T11:06:12.066Z,22.69
2018-07-12T11:07:12.095Z,22.67
2018-07-12T11:08:12.122Z,22.71
2018-07-12T11:09:12.148Z,22.78
2018-07-12T11:10:12.168Z,22.78
2018-07-12T11:11:12.203Z,22.71
2018-07-12T11:12:12.231Z,22.50
2018-07-12T11:13:12.256Z,22.43
2018-07-12T11:14:12.288Z,22.43
2018-07-12T11:15:12.311Z,22.47
2018-07-12T11:16:12.333Z,22.56
2018-07-12T11:17:12.365Z,22.72
2018-07-12T11:18:12.395Z,22.96
2018-07-12T11:19:12.421Z,22.87
2018-07-12T11:20:12.443Z,22.87
2018-07-12T11:21:12.537Z,22.78
2018-07-12T11:22:12.499Z,22.89
2018-07-12T11:23:12.532Z,23.01
2018-07-12T11:24:12.558Z,23.15
2018-07-12T11:25:12.583Z,23.27
2018-07-12T11:26:12.617Z,23.47
2018-07-12T11:27:12.644Z,23.45
2018-07-12T11:28:12.726Z,23.45
2018-07-12T11:29:12.691Z,23.39
2018-07-12T11:30:12.755Z,23.46
2018-07-12T11:31:12.750Z,23.72
2018-07-12T11:32:12.793Z,23.60
2018-07-12T11:33:12.832Z,23.55
2018-07-12T11:34:12.839Z,23.55
2018-07-12T11:35:12.873Z,23.60
2018-07-12T11:36:12.949Z,23.61
2018-07-12T11:37:12.925Z,23.62
2018-07-12T11:38:12.947Z,23.61
2018-07-12T11:39:12.986Z,23.64
2018-07-12T11:40:13.067Z,23.57
2018-07-12T11:41:13.067Z,23.57
2018-07-12T11:42:13.085Z,23.50
2018-07-12T11:43:13.095Z,23.50
2018-07-12T11:44:13.112Z,23.49
2018-07-12T11:45:13.164Z,23.40
2018-07-12T11:46:13.176Z,23.39
2018-07-12T11:47:13.207Z,23.60
2018-07-12T11:48:13.239Z,23.79
2018-07-12T11:49:13.263Z,23.87
2018-07-12T11:50:13.290Z,24.01
2018-07-12T11:51:13.329Z,23.79
2018-07-12T11:52:13.358Z,23.90
2018-07-12T11:53:13.377Z,24.16
2018-07-12T11:54:13.408Z,24.45
2018-07-12T11:55:13.432Z,24.39
2018-07-12T11:56:13.467Z,24.20
2018-07-12T11:57:13.491Z,24.08
2018-07-12T11:58:13.525Z,24.00
2018-07-12T11:59:13.541Z,24.31
2018-07-12T12:00:13.575Z,24.47
2018-07-12T12:01:13.610Z,24.47
2018-07-12T12:02:13.630Z,24.59
2018-07-12T12:03:13.659Z,24.67
2018-07-12T12:04:13.688Z,24.83
2018-07-12T12:05:13.717Z,24.71
2018-07-12T12:06:13.748Z,24.77
2018-07-12T12:07:13.781Z,24.57
2018-07-12T12:08:13.809Z,24.32
2018-07-12T12:09:13.838Z,24.04
2018-07-12T12:11:13.887Z,24.08
2018-07-12T12:12:13.920Z,23.85
2018-07-12T12:13:13.950Z,24.07
2018-07-12T12:14:13.984Z,24.08
2018-07-12T12:15:14.008Z,24.07
2018-07-12T12:16:14.052Z,24.05
2018-07-12T12:17:14.106Z,24.14
2018-07-12T12:18:14.088Z,24.23
2018-07-12T12:19:14.132Z,24.08
2018-07-12T12:20:14.177Z,24.17
2018-07-12T12:21:14.186Z,24.05
2018-07-12T12:22:14.211Z,24.05
2018-07-12T12:23:14.239Z,24.04
2018-07-12T12:24:14.278Z,24.10
2018-07-12T12:25:14.310Z,24.04
2018-07-12T12:26:14.325Z,24.13
2018-07-12T12:27:14.356Z,24.24
2018-07-12T12:28:14.384Z,24.45
2018-07-12T12:29:14.414Z,24.67
2018-07-12T12:30:14.442Z,24.80
2018-07-12T12:31:14.463Z,24.56
2018-07-12T12:32:14.499Z,24.49
2018-07-12T12:33:14.536Z,24.27
2018-07-12T12:34:14.567Z,24.10
2018-07-12T12:35:14.587Z,24.26
2018-07-12T12:36:14.613Z,24.27
2018-07-12T12:37:14.646Z,24.23
2018-07-12T12:38:14.672Z,24.12
2018-07-12T12:39:14.700Z,24.14
2018-07-12T12:40:14.728Z,24.07
2018-07-12T12:41:14.771Z,24.20
2018-07-12T12:42:14.788Z,24.23
2018-07-12T12:43:14.817Z,24.22
2018-07-12T12:44:14.841Z,24.17
2018-07-12T12:45:14.877Z,24.17
2018-07-12T12:46:14.905Z,24.16
2018-07-12T12:47:14.936Z,24.17
2018-07-12T12:48:14.964Z,24.10
2018-07-12T12:49:14.992Z,24.12
2018-07-12T12:50:15.025Z,24.13
2018-07-12T12:51:15.045Z,24.13
2018-07-12T12:52:15.092Z,24.07
2018-07-12T12:53:15.110Z,24.08
2018-07-12T12:54:15.144Z,24.12
2018-07-12T12:55:15.164Z,24.04
2018-07-12T12:56:15.195Z,24.04
2018-07-12T12:57:15.225Z,24.13
2018-07-12T12:58:15.259Z,24.10
2018-07-12T12:59:15.272Z,24.07